createdAt,value
2022-07-28T00:01:41.848Z,18.40
2022-07-28T00:04:10.155Z,18.40
2022-07-28T00:06:38.376Z,18.30
2022-07-28T00:09:06.615Z,18.30
2022-07-28T00:11:34.707Z,18.30
2022-07-28T00:14:19.215Z,18.20
2022-07-28T00:16:48.770Z,18.20
2022-07-28T00:19:17.013Z,18.20
2022-07-28T00:21:45.164Z,18.10
2022-07-28T00:24:13.535Z,18.10
2022-07-28T00:26:41.944Z,18.00
2022-07-28T00:29:10.201Z,18.00
2022-07-28T00:31:38.384Z,18.00
2022-07-28T00:34:08.142Z,17.90
2022-07-28T00:36:36.231Z,17.90
2022-07-28T00:39:04.579Z,17.90
2022-07-28T00:41:32.668Z,17.80
2022-07-28T00:44:00.965Z,17.90
2022-07-28T00:46:30.010Z,17.80
2022-07-28T00:48:58.185Z,17.80
2022-07-28T00:51:29.549Z,17.80
2022-07-28T00:53:58.345Z,17.80
2022-07-28T00:56:26.521Z,17.70
2022-07-28T00:58:54.773Z,17.70
2022-07-28T01:01:24.342Z,17.60
2022-07-28T01:03:54.961Z,17.60
2022-07-28T01:06:43.679Z,17.60
2022-07-28T01:09:20.892Z,17.60
2022-07-28T01:11:59.081Z,17.60
2022-07-28T01:14:35.183Z,17.50
2022-07-28T01:17:11.020Z,17.50
2022-07-28T01:19:44.641Z,17.50
2022-07-28T01:22:18.200Z,17.40
2022-07-28T01:24:52.499Z,17.50
2022-07-28T01:27:36.384Z,17.50
2022-07-28T01:30:11.823Z,17.40
2022-07-28T01:32:45.304Z,17.40
2022-07-28T01:35:18.180Z,17.40
2022-07-28T01:37:49.661Z,17.30
2022-07-28T01:40:21.807Z,17.30
2022-07-28T01:42:55.305Z,17.30
2022-07-28T01:45:26.173Z,17.20
2022-07-28T01:47:58.253Z,17.20
2022-07-28T01:50:28.089Z,17.20
2022-07-28T01:52:58.050Z,17.10
2022-07-28T01:55:27.341Z,17.10
2022-07-28T01:57:57.923Z,17.10
2022-07-28T02:00:27.772Z,17.00
2022-07-28T02:02:59.167Z,17.00
2022-07-28T02:05:28.510Z,17.00
2022-07-28T02:07:58.669Z,17.00
2022-07-28T02:10:27.296Z,16.90
2022-07-28T02:12:57.580Z,16.90
2022-07-28T02:15:28.107Z,16.80
2022-07-28T02:17:58.872Z,16.80
2022-07-28T02:20:27.597Z,16.80
2022-07-28T02:22:56.362Z,16.70
2022-07-28T02:25:24.692Z,16.70
2022-07-28T02:27:59.665Z,16.70
2022-07-28T02:30:35.476Z,16.70
2022-07-28T02:33:10.618Z,16.70
2022-07-28T02:35:45.964Z,16.70
2022-07-28T02:38:22.882Z,16.60
2022-07-28T02:40:54.973Z,16.60
2022-07-28T02:43:44.986Z,16.50
2022-07-28T02:46:20.326Z,16.50
2022-07-28T02:48:54.868Z,16.50
2022-07-28T02:51:26.120Z,16.50
2022-07-28T02:53:54.717Z,16.50
2022-07-28T02:56:24.634Z,16.50
2022-07-28T02:58:53.933Z,16.50
2022-07-28T03:01:22.981Z,16.40
2022-07-28T03:03:55.429Z,16.40
2022-07-28T03:06:28.371Z,16.40
2022-07-28T03:08:57.358Z,16.40
2022-07-28T03:11:25.501Z,16.40
2022-07-28T03:13:53.655Z,16.40
2022-07-28T03:16:21.838Z,16.40
2022-07-28T03:18:52.920Z,16.30
2022-07-28T03:21:21.112Z,16.30
2022-07-28T03:23:50.929Z,16.30
2022-07-28T03:26:25.036Z,16.30
2022-07-28T03:28:54.435Z,16.20
2022-07-28T03:31:23.699Z,16.20
2022-07-28T03:33:53.525Z,16.20
2022-07-28T03:36:27.469Z,16.20
2022-07-28T03:39:01.803Z,16.20
2022-07-28T03:41:31.344Z,16.20
2022-07-28T03:44:02.059Z,16.20
2022-07-28T03:46:30.268Z,16.20
2022-07-28T03:48:59.941Z,16.20
2022-07-28T03:51:29.611Z,16.20
2022-07-28T03:53:57.755Z,16.20
2022-07-28T03:56:25.905Z,16.30
2022-07-28T03:58:54.026Z,16.30
2022-07-28T04:01:22.259Z,16.30
2022-07-28T04:03:50.385Z,16.30
2022-07-28T04:06:20.084Z,16.30
2022-07-28T04:08:48.202Z,16.40
2022-07-28T04:11:16.344Z,16.50
2022-07-28T04:13:44.458Z,16.50
2022-07-28T04:16:12.548Z,16.60
2022-07-28T04:18:40.707Z,16.60
2022-07-28T04:21:08.821Z,16.70
2022-07-28T04:23:38.380Z,16.70
2022-07-28T04:26:06.680Z,16.70
2022-07-28T04:28:34.877Z,16.70
2022-07-28T04:31:03.124Z,16.80
2022-07-28T04:33:31.733Z,16.80
2022-07-28T04:36:01.613Z,16.80
2022-07-28T04:38:30.197Z,16.80
2022-07-28T04:40:59.764Z,16.80
2022-07-28T04:43:28.032Z,16.80
2022-07-28T04:45:56.372Z,16.80
2022-07-28T04:48:25.048Z,16.80
2022-07-28T04:50:53.728Z,16.90
2022-07-28T04:53:22.562Z,16.90
2022-07-28T04:55:52.625Z,17.00
2022-07-28T04:58:24.969Z,17.00
2022-07-28T05:00:53.644Z,17.00
2022-07-28T05:03:22.333Z,17.10
2022-07-28T05:05:54.008Z,17.10
2022-07-28T05:08:25.542Z,17.10
2022-07-28T05:10:55.278Z,17.10
2022-07-28T05:13:28.978Z,17.20
2022-07-28T05:16:00.018Z,17.20
2022-07-28T05:18:28.171Z,17.30
2022-07-28T05:20:56.249Z,17.30
2022-07-28T05:23:24.368Z,17.40
2022-07-28T05:25:52.656Z,17.40
2022-07-28T05:28:20.829Z,17.50
2022-07-28T05:30:50.461Z,17.60
2022-07-28T05:33:18.643Z,17.60
2022-07-28T05:35:54.367Z,17.70
2022-07-28T05:38:23.015Z,17.70
2022-07-28T05:40:51.766Z,17.70
2022-07-28T05:43:20.404Z,17.70
2022-07-28T05:45:49.941Z,17.70
2022-07-28T05:48:19.460Z,17.70
2022-07-28T05:50:47.699Z,17.70
2022-07-28T05:53:15.930Z,17.80
2022-07-28T05:56:00.418Z,17.90
2022-07-28T05:58:30.358Z,17.90
2022-07-28T06:01:02.170Z,17.90
2022-07-28T06:03:32.387Z,18.00
2022-07-28T06:06:15.059Z,18.00
2022-07-28T06:08:46.368Z,18.10
2022-07-28T06:11:21.661Z,18.10
2022-07-28T06:13:51.963Z,18.20
2022-07-28T06:16:22.910Z,18.10
2022-07-28T06:18:51.716Z,18.10
2022-07-28T06:21:19.936Z,18.10
2022-07-28T06:23:48.071Z,18.20
2022-07-28T06:26:16.341Z,18.10
2022-07-28T06:28:44.452Z,18.10
2022-07-28T06:31:13.390Z,18.00
2022-07-28T06:33:42.941Z,18.10
2022-07-28T06:36:11.061Z,18.10
2022-07-28T06:38:39.238Z,18.20
2022-07-28T06:41:07.607Z,18.30
2022-07-28T06:43:38.977Z,18.40
2022-07-28T06:46:07.435Z,18.40
2022-07-28T06:48:37.751Z,18.50
2022-07-28T06:51:07.454Z,18.70
2022-07-28T06:53:35.736Z,18.80
2022-07-28T06:56:05.379Z,18.80
2022-07-28T06:58:34.169Z,18.90
2022-07-28T07:01:07.321Z,18.90
2022-07-28T07:03:36.012Z,18.90
2022-07-28T07:06:04.271Z,18.90
2022-07-28T07:08:33.868Z,19.10
2022-07-28T07:11:02.328Z,19.20
2022-07-28T07:13:30.530Z,19.30
2022-07-28T07:15:58.811Z,19.50
2022-07-28T07:18:27.385Z,19.60
2022-07-28T07:20:57.702Z,19.60
2022-07-28T07:23:25.881Z,19.70
2022-07-28T07:25:55.688Z,19.70
2022-07-28T07:28:23.819Z,19.80
2022-07-28T07:30:52.216Z,19.80
2022-07-28T07:33:20.416Z,19.90
2022-07-28T07:35:48.756Z,20.00
2022-07-28T07:38:16.860Z,20.00
2022-07-28T07:40:45.370Z,20.10
2022-07-28T07:43:14.949Z,20.20
2022-07-28T07:45:43.116Z,20.20
2022-07-28T07:48:11.629Z,20.30
2022-07-28T07:50:40.031Z,20.30
2022-07-28T07:53:08.186Z,20.40
2022-07-28T07:55:37.746Z,20.50
2022-07-28T07:58:06.743Z,20.60
2022-07-28T08:00:36.404Z,20.70
2022-07-28T08:03:04.605Z,20.70
2022-07-28T08:05:39.387Z,20.80
2022-07-28T08:08:07.488Z,20.80
2022-07-28T08:10:35.721Z,20.80
2022-07-28T08:13:04.699Z,20.90
2022-07-28T08:15:33.680Z,20.90
2022-07-28T08:18:03.788Z,21.00
2022-07-28T08:20:32.052Z,21.10
2022-07-28T08:23:00.175Z,21.20
2022-07-28T08:25:28.997Z,21.40
2022-07-28T08:27:57.146Z,21.60
2022-07-28T08:30:30.249Z,21.70
2022-07-28T08:33:03.080Z,21.80
2022-07-28T08:35:34.007Z,21.80
2022-07-28T08:38:05.052Z,21.80
2022-07-28T08:40:33.582Z,21.70
2022-07-28T08:43:10.223Z,21.70
2022-07-28T08:45:40.681Z,21.70
2022-07-28T08:48:12.558Z,21.70
2022-07-28T08:50:40.877Z,21.80
2022-07-28T08:53:09.698Z,21.90
2022-07-28T08:55:38.719Z,22.00
2022-07-28T08:58:07.431Z,22.00
2022-07-28T09:00:35.682Z,22.00
2022-07-28T09:03:05.559Z,22.10
2022-07-28T09:05:36.987Z,22.20
2022-07-28T09:08:05.391Z,22.20
2022-07-28T09:10:33.633Z,22.20
2022-07-28T09:13:01.932Z,22.20
2022-07-28T09:15:30.310Z,22.20
2022-07-28T09:17:58.527Z,22.30
2022-07-28T09:20:29.359Z,22.30
2022-07-28T09:23:03.625Z,22.40
2022-07-28T09:25:32.775Z,22.50
2022-07-28T09:28:08.667Z,22.50
2022-07-28T09:30:53.434Z,22.60
2022-07-28T09:33:41.315Z,22.70
2022-07-28T09:36:16.795Z,22.80
2022-07-28T09:38:46.430Z,23.00
2022-07-28T09:41:18.798Z,23.20
2022-07-28T09:43:52.541Z,23.20
2022-07-28T09:46:24.768Z,23.20
2022-07-28T09:48:58.242Z,23.30
2022-07-28T09:51:28.339Z,23.30
2022-07-28T09:54:10.369Z,23.40
2022-07-28T09:56:39.431Z,23.50
2022-07-28T09:59:08.589Z,23.60
2022-07-28T10:01:53.037Z,23.60
2022-07-28T10:04:31.868Z,23.60
2022-07-28T10:07:10.073Z,23.50
2022-07-28T10:09:41.325Z,23.50
2022-07-28T10:12:16.643Z,23.50
2022-07-28T10:14:46.320Z,23.40
2022-07-28T10:17:28.419Z,23.30
2022-07-28T10:19:58.561Z,23.30
2022-07-28T10:22:30.106Z,23.20
2022-07-28T10:25:01.831Z,23.20
2022-07-28T10:27:30.577Z,23.00
2022-07-28T10:30:00.460Z,22.90
2022-07-28T10:32:30.552Z,22.80
2022-07-28T10:35:03.935Z,22.70
2022-07-28T10:37:36.038Z,22.70
2022-07-28T10:40:10.680Z,22.60
2022-07-28T10:42:40.723Z,22.60
2022-07-28T10:45:11.184Z,22.50
2022-07-28T10:47:39.393Z,22.60
2022-07-28T10:50:08.750Z,22.60
2022-07-28T10:52:59.127Z,22.70
2022-07-28T10:55:42.103Z,22.70
2022-07-28T10:58:18.397Z,22.90
2022-07-28T11:00:59.875Z,23.00
2022-07-28T11:03:42.854Z,23.00
2022-07-28T11:06:26.695Z,23.10
2022-07-28T11:08:55.218Z,23.20
2022-07-28T11:11:47.323Z,23.20
2022-07-28T11:14:37.571Z,23.30
2022-07-28T11:17:24.154Z,23.40
2022-07-28T11:20:26.684Z,23.40
2022-07-28T11:22:49.248Z,23.50
2022-07-28T11:25:22.348Z,23.50
2022-07-28T11:28:06.099Z,23.60
2022-07-28T11:30:54.573Z,23.60
2022-07-28T11:33:25.110Z,23.60
2022-07-28T11:35:59.709Z,23.50
2022-07-28T11:38:28.689Z,23.50
2022-07-28T11:40:58.133Z,23.40
2022-07-28T11:43:41.215Z,23.40
2022-07-28T11:46:25.020Z,23.50
2022-07-28T11:49:28.862Z,23.60
2022-07-28T11:52:20.933Z,23.80
2022-07-28T11:54:54.610Z,23.90
2022-07-28T11:57:27.311Z,24.00
2022-07-28T12:00:02.371Z,24.00
2022-07-28T12:02:32.841Z,23.90
2022-07-28T12:05:08.857Z,23.90
2022-07-28T12:07:40.689Z,23.90
2022-07-28T12:13:28.478Z,23.60
2022-07-28T12:15:58.342Z,23.50
2022-07-28T12:18:26.906Z,23.40
2022-07-28T12:20:55.918Z,23.40
2022-07-28T12:23:34.873Z,23.40
2022-07-28T12:26:12.249Z,23.40
2022-07-28T12:28:40.418Z,23.40
2022-07-28T12:31:14.996Z,23.50
2022-07-28T12:33:43.370Z,23.50
2022-07-28T12:36:11.921Z,23.50
2022-07-28T12:38:40.277Z,23.60
2022-07-28T12:41:15.912Z,23.50
2022-07-28T12:43:51.166Z,23.50
2022-07-28T12:46:28.220Z,23.60
2022-07-28T12:48:58.021Z,23.60
2022-07-28T12:51:35.279Z,23.60
2022-07-28T12:54:04.357Z,23.60
2022-07-28T12:56:32.997Z,23.60
2022-07-28T12:59:08.963Z,23.60
2022-07-28T13:01:52.209Z,23.70
2022-07-28T13:04:42.972Z,23.80
2022-07-28T13:07:13.216Z,23.80
2022-07-28T13:09:49.028Z,23.80
2022-07-28T13:12:23.005Z,23.80
2022-07-28T13:14:52.911Z,23.70
2022-07-28T13:17:23.678Z,23.80
2022-07-28T13:19:52.331Z,24.00
2022-07-28T13:22:28.577Z,24.10
2022-07-28T13:24:57.999Z,24.20
2022-07-28T13:27:26.708Z,24.20
2022-07-28T13:29:55.594Z,24.30
2022-07-28T13:32:25.309Z,24.30
2022-07-28T13:34:53.986Z,24.30
2022-07-28T13:37:22.413Z,24.30
2022-07-28T13:39:54.379Z,24.30
2022-07-28T13:42:23.643Z,24.30
2022-07-28T13:44:52.179Z,24.30
2022-07-28T13:47:20.976Z,24.20
2022-07-28T13:49:50.736Z,24.10
2022-07-28T13:52:32.843Z,24.00
2022-07-28T13:55:06.029Z,24.00
2022-07-28T13:57:36.496Z,24.00
2022-07-28T14:00:08.291Z,24.20
2022-07-28T14:02:37.414Z,24.20
2022-07-28T14:05:07.492Z,24.30
2022-07-28T14:07:39.862Z,24.30
2022-07-28T14:10:09.074Z,24.20
2022-07-28T14:12:37.618Z,24.10
2022-07-28T14:15:09.810Z,24.20
2022-07-28T14:17:43.461Z,24.30
2022-07-28T14:20:15.954Z,24.40
2022-07-28T14:22:46.471Z,24.50
2022-07-28T14:25:20.997Z,24.60
2022-07-28T14:27:51.499Z,24.60
2022-07-28T14:30:20.209Z,24.70
2022-07-28T14:32:48.751Z,24.70
2022-07-28T14:35:18.453Z,24.70
2022-07-28T14:40:39.146Z,24.70
2022-07-28T14:43:08.260Z,24.70
2022-07-28T14:46:00.457Z,24.70
2022-07-28T14:48:24.811Z,24.80
2022-07-28T14:50:55.527Z,24.80
2022-07-28T14:53:24.089Z,24.90
2022-07-28T14:55:56.025Z,24.90
2022-07-28T14:58:24.214Z,25.00
2022-07-28T15:00:52.482Z,25.20
2022-07-28T15:03:20.716Z,25.30
2022-07-28T15:05:48.970Z,25.50
2022-07-28T15:08:18.524Z,25.60
2022-07-28T15:10:48.948Z,25.60
2022-07-28T15:13:17.368Z,25.60
2022-07-28T15:15:45.734Z,25.50
2022-07-28T15:18:14.115Z,25.60
2022-07-28T15:20:43.310Z,25.60
2022-07-28T15:23:11.755Z,25.70
2022-07-28T15:25:42.811Z,25.80
2022-07-28T15:28:11.162Z,26.00
2022-07-28T15:30:51.438Z,26.00
2022-07-28T15:33:20.513Z,26.00
2022-07-28T15:35:57.713Z,26.10
2022-07-28T15:38:28.490Z,26.30
2022-07-28T15:40:59.870Z,26.60
2022-07-28T15:43:28.114Z,26.70
2022-07-28T15:45:57.524Z,27.00
2022-07-28T15:48:25.741Z,27.20
2022-07-28T15:50:53.853Z,27.30
2022-07-28T15:53:22.041Z,27.40
2022-07-28T15:55:51.532Z,27.50
2022-07-28T15:58:22.394Z,27.70
2022-07-28T16:00:51.291Z,27.90
2022-07-28T16:03:19.958Z,28.20
2022-07-28T16:05:49.947Z,28.40
2022-07-28T16:08:22.866Z,28.40
2022-07-28T16:10:54.445Z,28.30
2022-07-28T16:13:33.382Z,28.30
2022-07-28T16:16:05.580Z,28.30
2022-07-28T16:18:33.799Z,28.40
2022-07-28T16:21:01.924Z,28.40
2022-07-28T16:23:30.064Z,28.50
2022-07-28T16:25:58.149Z,28.80
2022-07-28T16:28:27.816Z,29.00
2022-07-28T16:30:56.520Z,29.20
2022-07-28T16:33:24.689Z,29.40
2022-07-28T16:35:53.345Z,29.60
2022-07-28T16:38:21.573Z,29.80
2022-07-28T16:40:49.932Z,29.90
2022-07-28T16:43:18.162Z,30.10
2022-07-28T16:45:47.683Z,30.10
2022-07-28T16:48:15.795Z,30.00
2022-07-28T16:50:46.223Z,30.00
2022-07-28T16:53:14.917Z,30.10
2022-07-28T16:55:43.051Z,30.30
2022-07-28T16:58:11.226Z,30.40
2022-07-28T17:00:39.355Z,30.50
2022-07-28T17:03:11.185Z,30.50
2022-07-28T17:05:39.479Z,30.40
2022-07-28T17:08:09.277Z,30.20
2022-07-28T17:10:42.046Z,30.10
2022-07-28T17:13:12.061Z,30.10
2022-07-28T17:15:41.497Z,30.10
2022-07-28T17:18:12.278Z,30.30
2022-07-28T17:20:42.106Z,30.30
2022-07-28T17:23:10.501Z,30.30
2022-07-28T17:26:16.103Z,30.20
2022-07-28T17:28:27.206Z,29.90
2022-07-28T17:30:55.572Z,29.40
2022-07-28T17:33:25.243Z,29.20
2022-07-28T17:35:55.135Z,29.10
2022-07-28T17:38:29.505Z,28.90
2022-07-28T17:41:03.931Z,28.70
2022-07-28T17:43:32.939Z,28.60
2022-07-28T17:46:01.339Z,28.50
2022-07-28T17:48:32.670Z,28.40
2022-07-28T17:51:00.792Z,28.30
2022-07-28T17:53:28.937Z,28.20
2022-07-28T17:56:00.900Z,28.10
2022-07-28T17:58:32.382Z,27.90
2022-07-28T18:01:09.273Z,27.70
2022-07-28T18:03:57.608Z,27.60
2022-07-28T18:06:29.633Z,27.40
2022-07-28T18:09:02.053Z,27.30
2022-07-28T18:11:58.016Z,27.20
2022-07-28T18:14:26.806Z,27.10
2022-07-28T18:16:55.839Z,27.00
2022-07-28T18:19:26.081Z,26.90
2022-07-28T18:21:54.279Z,27.00
2022-07-28T18:24:23.015Z,27.10
2022-07-28T18:26:53.124Z,27.10
2022-07-28T18:29:22.325Z,27.10
2022-07-28T18:31:53.134Z,27.00
2022-07-28T18:34:23.485Z,26.90
2022-07-28T18:36:56.054Z,26.70
2022-07-28T18:39:24.260Z,26.60
2022-07-28T18:41:55.960Z,26.40
2022-07-28T18:44:24.407Z,26.20
2022-07-28T18:46:52.878Z,26.10
2022-07-28T18:49:21.720Z,26.00
2022-07-28T18:51:50.428Z,25.90
2022-07-28T18:54:27.969Z,25.80
2022-07-28T18:56:56.547Z,25.60
2022-07-28T18:59:24.799Z,25.50
2022-07-28T19:01:53.140Z,25.40
2022-07-28T19:04:21.380Z,25.30
2022-07-28T19:06:50.481Z,25.20
2022-07-28T19:09:20.235Z,25.00
2022-07-28T19:11:48.783Z,24.90
2022-07-28T19:14:17.577Z,24.80
2022-07-28T19:16:46.272Z,24.70
2022-07-28T19:19:14.671Z,24.60
2022-07-28T19:21:43.445Z,24.60
2022-07-28T19:24:12.242Z,24.50
2022-07-28T19:26:43.365Z,24.30
2022-07-28T19:29:11.508Z,24.20
2022-07-28T19:31:41.389Z,24.20
2022-07-28T19:34:10.126Z,24.10
2022-07-28T19:36:38.689Z,24.00
2022-07-28T19:39:06.942Z,23.90
2022-07-28T19:41:35.152Z,23.80
2022-07-28T19:44:04.869Z,23.80
2022-07-28T19:46:33.123Z,23.70
2022-07-28T19:49:01.556Z,23.60
2022-07-28T19:51:29.761Z,23.50
2022-07-28T19:53:59.487Z,23.40
2022-07-28T19:56:31.451Z,23.40
2022-07-28T19:59:00.202Z,23.30
2022-07-28T20:01:30.664Z,23.30
2022-07-28T20:04:01.249Z,23.20
2022-07-28T20:06:32.545Z,23.10
2022-07-28T20:09:01.140Z,23.00
2022-07-28T20:11:29.891Z,23.00
2022-07-28T20:13:58.038Z,22.90
2022-07-28T20:16:26.447Z,22.80
2022-07-28T20:18:56.902Z,22.70
2022-07-28T20:21:26.320Z,22.70
2022-07-28T20:23:55.995Z,22.60
2022-07-28T20:26:25.981Z,22.60
2022-07-28T20:28:54.428Z,22.50
2022-07-28T20:31:22.706Z,22.50
2022-07-28T20:33:50.948Z,22.40
2022-07-28T20:36:20.433Z,22.40
2022-07-28T20:38:48.755Z,22.40
2022-07-28T20:41:17.520Z,22.40
2022-07-28T20:43:45.881Z,22.30
2022-07-28T20:46:14.123Z,22.30
2022-07-28T20:48:42.399Z,22.20
2022-07-28T20:51:10.788Z,22.20
2022-07-28T20:53:40.408Z,22.20
2022-07-28T20:56:08.551Z,22.20
2022-07-28T20:58:36.812Z,22.20
2022-07-28T21:01:05.159Z,22.20
2022-07-28T21:03:33.586Z,22.10
2022-07-28T21:06:01.865Z,22.10
2022-07-28T21:08:31.093Z,22.00
2022-07-28T21:11:00.983Z,22.00
2022-07-28T21:13:29.104Z,22.00
2022-07-28T21:15:57.420Z,21.90
2022-07-28T21:18:25.541Z,21.90
2022-07-28T21:20:53.683Z,21.80
2022-07-28T21:23:21.832Z,21.80
2022-07-28T21:25:51.354Z,21.80
2022-07-28T21:28:38.274Z,21.80
2022-07-28T21:31:06.421Z,21.80
2022-07-28T21:33:34.627Z,21.80
2022-07-28T21:36:02.818Z,21.70
2022-07-28T21:38:31.016Z,21.70
2022-07-28T21:40:59.290Z,21.70
2022-07-28T21:43:29.019Z,21.60
2022-07-28T21:45:57.380Z,21.60
2022-07-28T21:48:25.591Z,21.50
2022-07-28T21:50:54.705Z,21.40
2022-07-28T21:53:23.238Z,21.30
2022-07-28T21:55:53.048Z,21.30
2022-07-28T21:58:21.135Z,21.30
2022-07-28T22:00:50.796Z,21.20
2022-07-28T22:03:18.986Z,21.20
2022-07-28T22:05:47.427Z,21.20
2022-07-28T22:08:15.967Z,21.10
2022-07-28T22:10:44.131Z,21.10
2022-07-28T22:13:12.259Z,21.00
2022-07-28T22:15:40.517Z,21.00
2022-07-28T22:18:16.250Z,20.90
2022-07-28T22:20:45.105Z,20.90
2022-07-28T22:23:28.925Z,20.90
2022-07-28T22:25:58.219Z,20.90
2022-07-28T22:28:29.773Z,20.80
2022-07-28T22:31:08.631Z,20.70
2022-07-28T22:33:39.967Z,20.70
2022-07-28T22:36:09.388Z,20.70
2022-07-28T22:38:38.139Z,20.60
2022-07-28T22:41:06.322Z,20.60
2022-07-28T22:43:35.484Z,20.60
2022-07-28T22:46:03.962Z,20.60
2022-07-28T22:48:32.402Z,20.50
2022-07-28T22:51:01.913Z,20.50
2022-07-28T22:53:30.025Z,20.50
2022-07-28T22:55:58.651Z,20.50
2022-07-28T22:58:26.834Z,20.40
2022-07-28T23:00:54.958Z,20.30
2022-07-28T23:03:24.589Z,20.30
2022-07-28T23:05:58.177Z,20.30
2022-07-28T23:08:28.548Z,20.30
2022-07-28T23:10:56.836Z,20.20
2022-07-28T23:13:25.001Z,20.20
2022-07-28T23:15:53.180Z,20.10
2022-07-28T23:18:21.272Z,20.10
2022-07-28T23:20:49.756Z,20.10
2022-07-28T23:23:19.163Z,20.10
2022-07-28T23:25:48.787Z,20.00
2022-07-28T23:28:16.895Z,20.00
2022-07-28T23:30:47.285Z,20.00
2022-07-28T23:33:15.693Z,19.90
2022-07-28T23:36:03.546Z,19.90
2022-07-28T23:38:31.661Z,19.90
2022-07-28T23:41:01.260Z,19.80
2022-07-28T23:43:30.616Z,19.70
2022-07-28T23:45:58.839Z,19.70
2022-07-28T23:48:26.979Z,19.60
2022-07-28T23:50:55.089Z,19.50
2022-07-28T23:53:23.262Z,19.50
2022-07-28T23:55:51.314Z,19.50
2022-07-28T23:58:20.820Z,19.50
